Time;durP1;ratioP1;P1;durP2;ratioP2;P2;SDS_P1;SDS_P2;PMS_P1;PMS_P2;Temp;Humidity;BMP_temperature;BMP_pressure;BME280_temperature;BME280_humidity;BME280_pressure;Samples;Min_cycle;Max_cycle;Signal;HPM_P1;HPM_P2
2021/10/27 00:01:55;;;;;;;6.88;3.05;;;;;;;5.13;55.31;99482.69;4923498;29;20142;-50
2021/10/27 00:04:21;;;;;;;10.52;3.83;;;;;;;5.14;55.45;99486.13;4914461;29;20050;-51
2021/10/27 00:06:47;;;;;;;6.25;3.42;;;;;;;5.13;55.12;99489.56;4916673;29;20082;-51
2021/10/27 00:09:14;;;;;;;4.45;2.75;;;;;;;5.11;55.48;99489.59;4913251;29;20480;-48
2021/10/27 00:11:40;;;;;;;8.38;4.18;;;;;;;5.10;55.24;99487.91;4895956;29;20415;-49
2021/10/27 00:14:06;;;;;;;12.55;3.88;;;;;;;5.10;55.69;99487.03;4929208;29;20055;-53
2021/10/27 00:16:33;;;;;;;6.82;3.72;;;;;;;5.08;55.32;99475.91;4926894;29;20044;-54
2021/10/27 00:18:59;;;;;;;5.40;2.83;;;;;;;5.02;55.31;99471.69;4928279;29;20042;-54
2021/10/27 00:21:26;;;;;;;9.25;4.10;;;;;;;5.08;55.44;99484.47;4913933;29;20544;-50
2021/10/27 00:23:52;;;;;;;8.55;4.47;;;;;;;5.06;55.93;99478.53;4930158;29;20039;-53
2021/10/27 00:26:18;;;;;;;11.95;4.68;;;;;;;5.03;55.33;99473.41;4931379;29;20471;-52
2021/10/27 00:28:44;;;;;;;6.75;3.05;;;;;;;5.02;56.09;99469.13;4893863;29;20099;-53
2021/10/27 00:31:10;;;;;;;6.45;3.70;;;;;;;5.02;55.55;99463.13;4923243;29;20508;-52
2021/10/27 00:33:37;;;;;;;8.63;3.33;;;;;;;5.01;55.79;99464.88;4918497;29;20063;-49
2021/10/27 00:36:05;;;;;;;7.60;3.25;;;;;;;4.93;55.79;99447.81;4924265;29;20044;-52
2021/10/27 00:38:31;;;;;;;7.03;3.05;;;;;;;4.99;56.20;99473.47;4896918;29;20047;-53
2021/10/27 00:40:57;;;;;;;10.13;3.63;;;;;;;4.97;55.71;99458.03;4905751;29;20036;-51
2021/10/27 00:43:22;;;;;;;10.23;3.28;;;;;;;4.96;56.16;99458.06;4932244;29;20074;-49
2021/10/27 00:45:48;;;;;;;7.60;2.90;;;;;;;4.94;55.88;99454.66;4919377;29;20398;-51
2021/10/27 00:48:14;;;;;;;8.85;3.38;;;;;;;4.93;56.45;99455.53;4906634;29;20532;-49
2021/10/27 00:50:40;;;;;;;7.55;3.40;;;;;;;4.93;56.27;99440.06;4929461;29;20044;-50
2021/10/27 00:53:06;;;;;;;9.02;3.95;;;;;;;4.92;56.36;99446.13;4921746;29;20442;-52
2021/10/27 00:55:32;;;;;;;7.68;3.70;;;;;;;4.91;56.34;99445.28;4927414;29;20070;-52
2021/10/27 00:57:59;;;;;;;7.25;3.45;;;;;;;4.91;56.71;99454.72;4929963;29;20400;-51
2021/10/27 01:00:25;;;;;;;5.75;3.10;;;;;;;4.89;56.08;99451.31;4914467;29;20056;-51
2021/10/27 01:02:51;;;;;;;4.47;2.78;;;;;;;4.79;56.54;99439.44;4913536;29;20139;-54
2021/10/27 01:05:17;;;;;;;8.60;2.88;;;;;;;4.89;56.87;99441.00;4914581;29;20043;-51
2021/10/27 01:07:43;;;;;;;8.52;3.17;;;;;;;4.91;56.80;99440.13;4913742;29;20087;-53
2021/10/27 01:10:10;;;;;;;4.93;2.92;;;;;;;4.89;56.82;99430.69;4915411;29;20052;-49
2021/10/27 01:12:36;;;;;;;5.88;3.13;;;;;;;4.88;57.07;99442.72;4913128;29;20044;-53
2021/10/27 01:15:03;;;;;;;8.95;3.60;;;;;;;4.86;56.77;99438.50;4915236;29;20127;-53
2021/10/27 01:17:30;;;;;;;11.65;4.22;;;;;;;4.89;56.98;99421.25;4915409;29;20044;-55
2021/10/27 01:19:59;;;;;;;13.70;4.65;;;;;;;4.88;56.67;99418.69;4913408;29;20039;-51
2021/10/27 01:22:26;;;;;;;6.90;3.30;;;;;;;4.87;56.42;99414.41;4898638;29;20040;-52
2021/10/27 01:24:55;;;;;;;8.75;3.75;;;;;;;4.85;56.38;99405.88;4918414;29;20432;-51
2021/10/27 01:27:21;;;;;;;6.78;3.80;;;;;;;4.86;56.61;99405.84;4932668;29;20091;-49
2021/10/27 01:29:48;;;;;;;10.02;4.30;;;;;;;4.86;56.99;99412.72;4920997;29;20036;-51
2021/10/27 01:32:38;;;;;;;7.30;3.97;;;;;;;4.86;56.89;99402.44;4917167;29;20048;-52
2021/10/27 01:35:06;;;;;;;7.47;3.35;;;;;;;4.86;57.21;99397.28;4932488;29;20512;-52
2021/10/27 01:37:33;;;;;;;7.85;3.50;;;;;;;4.84;56.72;99393.88;4918991;29;20048;-50
2021/10/27 01:39:59;;;;;;;6.35;3.10;;;;;;;4.84;57.48;99399.00;4927355;29;20420;-50
2021/10/27 01:42:25;;;;;;;8.50;3.67;;;;;;;4.86;57.43;99395.56;4916909;29;20040;-54
2021/10/27 01:44:51;;;;;;;7.30;4.03;;;;;;;4.86;57.04;99392.97;4917931;29;20377;-51
2021/10/27 01:47:17;;;;;;;7.40;3.60;;;;;;;4.84;57.52;99389.56;4910795;29;20082;-53
2021/10/27 01:49:43;;;;;;;9.15;4.10;;;;;;;4.87;57.47;99396.38;4932974;29;20039;-50
2021/10/27 01:52:09;;;;;;;8.40;3.53;;;;;;;4.77;57.04;99369.94;4919837;29;20047;-54
2021/10/27 01:54:34;;;;;;;8.07;4.05;;;;;;;4.88;57.31;99398.09;4916983;29;20043;-53
2021/10/27 01:57:01;;;;;;;5.55;3.40;;;;;;;4.85;57.32;99382.69;4915503;29;20489;-49
2021/10/27 01:59:27;;;;;;;7.35;3.85;;;;;;;4.87;57.24;99388.66;4924175;29;20047;-49
2021/10/27 02:01:54;;;;;;;6.28;3.40;;;;;;;4.86;57.12;99381.81;4922179;29;20461;-50
2021/10/27 02:04:21;;;;;;;7.22;3.65;;;;;;;4.86;57.00;99381.81;4933957;29;20090;-50
2021/10/27 02:06:47;;;;;;;12.98;3.67;;;;;;;4.84;57.49;99386.13;4925652;29;20040;-53
2021/10/27 02:09:13;;;;;;;7.38;3.40;;;;;;;4.83;57.58;99380.13;4931389;29;20562;-50
2021/10/27 02:11:39;;;;;;;10.90;4.35;;;;;;;4.83;57.29;99384.44;4912499;29;20058;-50
2021/10/27 02:14:05;;;;;;;10.05;4.90;;;;;;;4.81;57.74;99374.19;4918695;29;20051;-52
2021/10/27 02:16:31;;;;;;;4.72;2.70;;;;;;;4.80;57.23;99379.34;4916525;29;20130;-52
2021/10/27 02:18:57;;;;;;;8.07;3.72;;;;;;;4.79;57.81;99367.34;4917237;29;20043;-52
2021/10/27 02:21:23;;;;;;;8.25;3.47;;;;;;;4.77;57.64;99364.78;4920937;29;20092;-52
2021/10/27 02:23:51;;;;;;;9.25;4.05;;;;;;;4.78;57.40;99365.63;4935117;29;20126;-52
2021/10/27 02:26:19;;;;;;;6.85;3.55;;;;;;;4.78;57.43;99360.47;4934794;29;20511;-49
2021/10/27 02:28:45;;;;;;;8.20;3.58;;;;;;;4.77;57.88;99369.06;4873110;29;20500;-49
2021/10/27 02:31:11;;;;;;;8.00;4.20;;;;;;;4.76;57.60;99370.81;4883311;29;20046;-49
2021/10/27 02:33:37;;;;;;;9.65;4.25;;;;;;;4.69;57.93;99352.03;4910629;29;20138;-55
2021/10/27 02:36:03;;;;;;;9.88;4.07;;;;;;;4.69;57.77;99344.31;4915740;29;20043;-53
2021/10/27 02:38:29;;;;;;;5.63;3.35;;;;;;;4.64;57.73;99343.53;4916726;29;20058;-53
2021/10/27 02:40:56;;;;;;;7.53;3.85;;;;;;;4.59;57.84;99331.63;4932556;29;20055;-50
2021/10/27 02:43:22;;;;;;;6.05;3.20;;;;;;;4.72;58.22;99339.97;4917153;29;20126;-51
2021/10/27 02:45:48;;;;;;;9.55;4.32;;;;;;;4.72;58.29;99348.56;4917049;29;20136;-52
2021/10/27 02:48:15;;;;;;;7.43;4.13;;;;;;;4.71;58.35;99346.84;4915590;29;20040;-52
2021/10/27 02:50:42;;;;;;;10.18;4.38;;;;;;;4.69;57.81;99349.47;4914363;29;20040;-54
2021/10/27 02:53:08;;;;;;;9.27;4.15;;;;;;;4.63;58.33;99335.84;4899283;29;20042;-55
2021/10/27 02:55:34;;;;;;;12.75;3.95;;;;;;;4.66;58.43;99333.19;4923968;29;20405;-55
2021/10/27 02:58:00;;;;;;;6.13;3.15;;;;;;;4.65;58.79;99334.94;4911462;29;20051;-53
2021/10/27 03:00:27;;;;;;;11.95;3.72;;;;;;;4.47;58.51;99294.03;4915344;29;20531;-52
2021/10/27 03:02:53;;;;;;;11.48;4.38;;;;;;;4.57;58.93;99308.47;4915266;29;20127;-52
2021/10/27 03:05:20;;;;;;;5.47;3.13;;;;;;;4.62;59.03;99323.84;4916874;29;20142;-51
2021/10/27 03:07:47;;;;;;;6.75;4.10;;;;;;;4.62;58.47;99316.09;4914395;29;20100;-50
2021/10/27 03:10:13;;;;;;;7.95;3.65;;;;;;;4.61;58.74;99310.09;4912674;29;20475;-55
2021/10/27 03:12:39;;;;;;;6.18;3.40;;;;;;;4.61;58.85;99309.25;4914904;29;20040;-52
2021/10/27 03:15:05;;;;;;;10.18;4.57;;;;;;;4.60;58.97;99308.44;4915406;29;20440;-54
2021/10/27 03:17:31;;;;;;;7.00;3.65;;;;;;;4.56;59.15;99311.91;4915466;29;20496;-56
2021/10/27 03:19:57;;;;;;;5.90;2.58;;;;;;;4.57;59.24;99311.03;4920548;29;20123;-52
2021/10/27 03:22:23;;;;;;;8.18;3.88;;;;;;;4.57;59.06;99299.88;4914025;29;20075;-53
2021/10/27 03:24:49;;;;;;;7.88;3.75;;;;;;;4.47;59.22;99281.19;4903459;29;20047;-49
2021/10/27 03:27:16;;;;;;;8.10;3.97;;;;;;;4.57;59.46;99290.44;4911998;29;20059;-51
2021/10/27 03:29:41;;;;;;;6.60;2.78;;;;;;;4.55;59.54;99289.59;4914909;29;20051;-50
2021/10/27 03:32:08;;;;;;;11.02;3.97;;;;;;;4.56;59.77;99287.88;4913766;29;20048;-49
2021/10/27 03:34:35;;;;;;;5.20;2.88;;;;;;;4.55;59.38;99283.63;4901385;29;20056;-51
2021/10/27 03:37:02;;;;;;;8.77;4.03;;;;;;;4.54;59.28;99277.63;4916214;29;20428;-53
2021/10/27 03:39:28;;;;;;;6.75;3.40;;;;;;;4.50;59.63;99257.94;4914520;29;20122;-51
2021/10/27 03:41:53;;;;;;;7.40;4.18;;;;;;;4.57;59.43;99279.28;4914108;29;20580;-54
2021/10/27 03:44:19;;;;;;;6.93;3.38;;;;;;;4.59;59.85;99274.97;4916869;29;20091;-52
2021/10/27 03:46:45;;;;;;;8.18;3.80;;;;;;;4.58;59.79;99271.56;4914349;29;20069;-51
2021/10/27 03:49:11;;;;;;;8.75;4.60;;;;;;;4.58;59.75;99273.28;4909243;29;20636;-50
2021/10/27 03:51:37;;;;;;;5.95;3.22;;;;;;;4.56;59.49;99251.84;4933663;29;20091;-50
2021/10/27 03:54:03;;;;;;;9.13;4.43;;;;;;;4.57;60.14;99259.56;4933347;29;20472;-52
2021/10/27 03:56:29;;;;;;;9.90;4.30;;;;;;;4.56;60.08;99264.72;4930410;29;20039;-50
2021/10/27 03:58:55;;;;;;;8.18;3.95;;;;;;;4.55;60.12;99263.03;4933018;29;20439;-52
2021/10/27 04:01:21;;;;;;;8.85;3.58;;;;;;;4.55;59.65;99256.16;4923463;29;20040;-56
2021/10/27 04:03:47;;;;;;;10.95;3.85;;;;;;;4.55;60.12;99257.91;4915856;29;20543;-54
2021/10/27 04:06:13;;;;;;;9.02;3.88;;;;;;;4.54;60.15;99254.47;4917793;29;20044;-54
2021/10/27 04:08:38;;;;;;;9.13;3.90;;;;;;;4.55;60.51;99251.00;4914487;29;20042;-51
2021/10/27 04:11:05;;;;;;;11.50;4.78;;;;;;;4.56;59.93;99252.69;4905682;29;20427;-48
2021/10/27 04:13:30;;;;;;;10.77;4.13;;;;;;;4.50;60.24;99252.78;4923921;29;20063;-52
2021/10/27 04:15:56;;;;;;;9.50;4.82;;;;;;;4.57;60.42;99254.41;4914137;29;20528;-51
2021/10/27 04:18:22;;;;;;;9.20;4.15;;;;;;;4.53;60.75;99257.91;4915047;29;20051;-55
2021/10/27 04:20:48;;;;;;;10.57;5.07;;;;;;;4.54;60.05;99263.91;4890741;29;20136;-51
2021/10/27 04:23:14;;;;;;;5.32;3.20;;;;;;;4.53;60.78;99263.06;4896927;29;20044;-53
2021/10/27 04:25:40;;;;;;;7.95;3.60;;;;;;;4.52;60.47;99268.22;4915667;29;20056;-54
2021/10/27 04:28:06;;;;;;;8.68;4.00;;;;;;;4.52;60.82;99263.94;4906841;29;20036;-49
2021/10/27 04:30:33;;;;;;;5.78;3.28;;;;;;;4.52;60.72;99258.78;4894761;29;20584;-52
2021/10/27 04:32:59;;;;;;;4.15;2.55;;;;;;;4.42;60.96;99236.66;4893382;29;20064;-50
2021/10/27 04:35:26;;;;;;;11.93;4.50;;;;;;;4.51;61.12;99258.78;4892100;29;20044;-48
2021/10/27 04:37:52;;;;;;;8.80;4.47;;;;;;;4.49;61.30;99245.97;4910517;29;20422;-49
2021/10/27 04:40:19;;;;;;;14.88;4.90;;;;;;;4.52;60.59;99255.34;4912174;29;20032;-52
2021/10/27 04:42:46;;;;;;;8.73;4.35;;;;;;;4.54;60.65;99253.63;4909669;29;20051;-53
2021/10/27 04:45:13;;;;;;;17.33;5.25;;;;;;;4.55;61.00;99245.03;4910825;29;20058;-53
2021/10/27 04:47:42;;;;;;;9.65;4.63;;;;;;;4.52;60.86;99232.19;4893455;29;20040;-49
2021/10/27 04:50:08;;;;;;;9.13;4.18;;;;;;;4.53;61.15;99239.91;4911224;29;20040;-47
2021/10/27 04:52:35;;;;;;;13.25;4.88;;;;;;;4.55;60.65;99252.75;4896099;29;20127;-51
2021/10/27 04:55:01;;;;;;;7.57;4.68;;;;;;;4.56;61.06;99241.56;4912020;29;20123;-49
2021/10/27 04:57:28;;;;;;;11.00;4.35;;;;;;;4.44;61.35;99240.06;4913067;29;20511;-52
2021/10/27 04:59:53;;;;;;;7.95;4.72;;;;;;;4.54;61.59;99249.31;4889978;29;20046;-53
2021/10/27 05:02:19;;;;;;;10.57;3.72;;;;;;;4.57;61.03;99241.53;4910289;29;20044;-50
2021/10/27 05:04:45;;;;;;;12.80;4.68;;;;;;;4.55;61.52;99237.31;4910090;29;20595;-48
2021/10/27 05:07:13;;;;;;;9.63;4.38;;;;;;;4.61;61.34;99250.03;4909654;29;20406;-48
2021/10/27 05:09:40;;;;;;;22.75;6.70;;;;;;;4.61;60.89;99243.16;4893968;29;20086;-48
2021/10/27 05:12:07;;;;;;;12.05;5.63;;;;;;;4.63;60.98;99238.84;4910333;29;20121;-49
2021/10/27 05:14:38;;;;;;;10.00;4.88;;;;;;;4.67;61.34;99247.38;4892949;29;20210;-53
2021/10/27 05:17:12;;;;;;;17.75;5.90;;;;;;;4.68;61.18;99244.78;4911434;29;20044;-50
2021/10/27 05:19:39;;;;;;;11.80;4.15;;;;;;;4.66;61.19;99250.81;4908943;29;20048;-53
2021/10/27 05:22:06;;;;;;;10.60;5.13;;;;;;;4.60;60.81;99238.06;4907262;29;20039;-58
2021/10/27 05:24:32;;;;;;;11.70;5.47;;;;;;;4.74;61.17;99254.13;4906171;29;20103;-52
2021/10/27 05:26:58;;;;;;;9.32;4.50;;;;;;;4.81;60.63;99249.72;4894048;29;20052;-51
2021/10/27 05:29:24;;;;;;;17.40;4.53;;;;;;;4.82;60.60;99246.22;4910868;29;20048;-50
2021/10/27 05:31:50;;;;;;;11.07;5.25;;;;;;;4.83;60.73;99253.09;4910493;29;20056;-53
2021/10/27 05:34:16;;;;;;;12.38;5.35;;;;;;;4.68;60.78;99226.75;4909293;29;20443;-52
2021/10/27 05:36:42;;;;;;;11.52;5.45;;;;;;;4.81;60.57;99236.84;4911776;29;20487;-50
2021/10/27 05:39:09;;;;;;;8.38;4.57;;;;;;;4.82;60.77;99228.22;4896105;29;20047;-50
2021/10/27 05:41:35;;;;;;;9.45;4.25;;;;;;;4.92;60.75;99245.22;4911613;29;20051;-53
2021/10/27 05:44:02;;;;;;;9.20;4.43;;;;;;;4.91;60.42;99235.78;4926220;29;20048;-52
2021/10/27 05:46:28;;;;;;;7.88;4.85;;;;;;;4.91;60.60;99254.66;4909878;29;20047;-52
2021/10/27 05:49:16;;;;;;;12.77;5.82;;;;;;;4.96;60.88;99236.56;4892415;29;20132;-53
2021/10/27 05:51:46;;;;;;;9.48;4.35;;;;;;;5.06;60.02;99231.19;4900342;29;20048;-56
2021/10/27 05:56:56;;;;;;;5.40;3.58;;;;;;;5.13;60.01;99226.75;4904161;29;20040;-49
2021/10/27 05:59:22;;;;;;;10.02;4.55;;;;;;;5.17;60.02;99227.56;4911201;29;20043;-49
2021/10/27 06:01:48;;;;;;;9.38;5.03;;;;;;;5.20;60.19;99223.19;4901291;29;20040;-48
2021/10/27 06:04:17;;;;;;;7.18;4.00;;;;;;;5.20;60.23;99218.03;4900532;29;20047;-53
2021/10/27 06:06:44;;;;;;;9.38;4.63;;;;;;;5.17;60.10;99215.53;4913051;29;20461;-52
2021/10/27 06:09:10;;;;;;;10.82;4.50;;;;;;;5.22;60.07;99205.97;4927091;29;20131;-52
2021/10/27 06:11:37;;;;;;;10.50;4.57;;;;;;;5.23;59.80;99194.78;4920116;29;20051;-54
2021/10/27 06:14:04;;;;;;;20.05;5.50;;;;;;;5.31;60.35;99184.31;4911152;29;20304;-52
2021/10/27 06:16:30;;;;;;;8.68;5.22;;;;;;;5.34;59.58;99195.38;4913961;29;20043;-52
2021/10/27 06:18:57;;;;;;;13.10;5.10;;;;;;;5.43;59.85;99208.09;4914609;29;20050;-48
2021/10/27 06:21:23;;;;;;;9.95;4.85;;;;;;;5.48;59.56;99205.41;4914145;29;20044;-50
2021/10/27 06:23:49;;;;;;;9.65;5.30;;;;;;;5.49;59.43;99207.13;4914948;29;20103;-49
2021/10/27 06:26:18;;;;;;;10.23;5.05;;;;;;;5.45;59.69;99190.84;4915448;29;20445;-52
2021/10/27 06:28:58;;;;;;;12.60;5.30;;;;;;;5.53;60.04;99195.84;4913445;29;20072;-51
2021/10/27 06:31:33;;;;;;;12.48;3.85;;;;;;;5.50;59.64;99198.47;4914478;29;20048;-51
2021/10/27 06:34:07;;;;;;;9.70;4.32;;;;;;;5.54;59.93;99201.00;4913196;29;20087;-53
2021/10/27 06:45:56;;;;;;;11.80;5.05;;;;;;;5.52;59.65;99212.19;4914638;29;20632;-53
2021/10/27 06:47:45;;;;;;;7.20;3.83;;;;;;;5.61;60.29;99203.41;4911150;29;20099;-52
2021/10/27 06:50:11;;;;;;;7.55;4.30;;;;;;;5.62;59.91;99199.94;4913928;29;20044;-54
2021/10/27 06:52:37;;;;;;;10.98;5.03;;;;;;;5.62;60.23;99184.47;4912880;29;20052;-49
2021/10/27 06:55:03;;;;;;;10.98;5.57;;;;;;;5.64;60.13;99173.25;4914454;29;20043;-53
2021/10/27 06:57:29;;;;;;;12.90;4.65;;;;;;;5.73;59.71;99179.94;4913229;29;20127;-52
2021/10/27 07:00:14;;;;;;;10.27;5.55;;;;;;;5.75;60.17;99168.72;4913448;29;20128;-53
2021/10/27 07:16:15;;;;;;;11.88;5.32;;;;;;;5.88;60.09;99177.88;4898635;29;20352;-51
2021/10/27 07:18:41;;;;;;;16.08;6.57;;;;;;;6.01;59.92;99169.84;4915255;29;20100;-53
2021/10/27 07:21:07;;;;;;;12.35;6.00;;;;;;;6.12;59.55;99165.28;4915036;29;20063;-54
2021/10/27 07:23:34;;;;;;;11.52;5.43;;;;;;;6.19;59.87;99164.22;4915268;29;20491;-54
2021/10/27 07:26:00;;;;;;;15.70;5.90;;;;;;;6.29;59.38;99169.13;4929524;29;20040;-52
2021/10/27 07:28:27;;;;;;;14.90;5.90;;;;;;;6.25;59.33;99159.75;4915133;29;20048;-54
2021/10/27 07:30:54;;;;;;;10.02;5.18;;;;;;;6.22;59.34;99161.59;4914542;29;20052;-53
2021/10/27 07:33:21;;;;;;;7.72;4.55;;;;;;;6.30;59.75;99151.91;4914569;29;20083;-51
2021/10/27 07:35:51;;;;;;;14.77;5.57;;;;;;;6.25;59.21;99143.44;4914913;29;20043;-53
2021/10/27 07:41:03;;;;;;;10.55;5.80;;;;;;;6.33;59.60;99154.44;4922076;29;20106;-51
2021/10/27 07:43:31;;;;;;;10.95;5.03;;;;;;;6.41;59.74;99157.63;4924488;29;20055;-54
2021/10/27 07:45:58;;;;;;;14.15;6.93;;;;;;;6.42;59.50;99150.75;4920445;29;20475;-53
2021/10/27 07:48:23;;;;;;;10.18;5.68;;;;;;;6.26;59.58;99130.50;4912099;29;20180;-56
2021/10/27 07:50:50;;;;;;;11.20;5.53;;;;;;;6.42;59.94;99161.06;4913883;29;20056;-54
2021/10/27 07:53:17;;;;;;;10.88;5.90;;;;;;;6.45;60.21;99141.19;4914044;29;20131;-56
2021/10/27 07:55:44;;;;;;;14.00;5.75;;;;;;;6.56;59.57;99139.16;4897086;29;20039;-57
2021/10/27 07:58:12;;;;;;;12.83;6.37;;;;;;;6.56;59.97;99139.16;4881880;29;20047;-53
2021/10/27 08:00:39;;;;;;;15.05;6.30;;;;;;;6.62;59.91;99138.16;4915342;29;20048;-55
2021/10/27 08:03:05;;;;;;;12.13;5.03;;;;;;;6.62;59.62;99130.41;4932876;29;20142;-53
2021/10/27 08:05:40;;;;;;;13.85;5.05;;;;;;;6.58;59.71;99144.28;4933387;29;20074;-54
2021/10/27 08:08:07;;;;;;;8.88;4.95;;;;;;;6.52;59.89;99131.53;4933542;29;20508;-55
2021/10/27 08:10:33;;;;;;;11.68;4.50;;;;;;;6.56;59.99;99127.97;4933017;29;20054;-53
2021/10/27 08:12:59;;;;;;;12.02;5.25;;;;;;;6.48;61.00;99137.69;4933121;29;20130;-53
2021/10/27 08:15:27;;;;;;;16.15;6.28;;;;;;;6.48;60.38;99129.94;4916359;29;20063;-56
2021/10/27 08:17:53;;;;;;;12.15;6.13;;;;;;;6.54;60.49;99128.00;4910789;29;20043;-54
2021/10/27 08:20:24;;;;;;;10.00;4.95;;;;;;;6.56;60.86;99131.41;4913258;29;20040;-53
2021/10/27 08:22:56;;;;;;;13.38;5.70;;;;;;;6.63;60.21;99129.53;4895441;29;20054;-53
2021/10/27 08:25:29;;;;;;;15.77;5.40;;;;;;;6.70;60.47;99121.53;4911109;29;20044;-54
2021/10/27 08:28:01;;;;;;;9.20;4.28;;;;;;;6.65;60.43;99118.25;4911337;29;20040;-52
2021/10/27 08:30:36;;;;;;;11.55;5.80;;;;;;;6.66;60.39;99124.25;4911975;29;20393;-55
2021/10/27 08:33:06;;;;;;;13.95;6.22;;;;;;;6.73;60.18;99130.97;4911910;29;20063;-54
2021/10/27 08:35:34;;;;;;;17.38;6.85;;;;;;;6.79;60.53;99116.13;4912726;29;20040;-53
2021/10/27 08:38:00;;;;;;;14.45;6.20;;;;;;;6.84;60.06;99135.81;4916944;29;20036;-54
2021/10/27 08:40:27;;;;;;;9.52;5.43;;;;;;;6.73;60.72;99118.03;4913241;29;20046;-57
2021/10/27 08:42:55;;;;;;;13.90;6.03;;;;;;;6.68;60.54;99117.31;4911850;29;20044;-52
2021/10/27 08:45:22;;;;;;;15.60;6.30;;;;;;;6.72;60.35;99108.59;4911115;29;20048;-52
2021/10/27 08:47:51;;;;;;;12.30;5.18;;;;;;;6.79;60.40;99117.88;4912852;29;20130;-57
2021/10/27 08:50:20;;;;;;;19.00;6.93;;;;;;;6.95;60.61;99113.13;4909209;29;20068;-52
2021/10/27 08:52:48;;;;;;;13.23;6.80;;;;;;;7.09;59.96;99105.81;4911300;29;20147;-54
2021/10/27 08:55:15;;;;;;;12.98;6.20;;;;;;;7.17;59.97;99109.03;4912704;29;20050;-56
2021/10/27 08:57:45;;;;;;;16.55;6.72;;;;;;;7.29;59.55;99118.97;4912590;29;20548;-54
2021/10/27 09:00:15;;;;;;;12.93;5.93;;;;;;;7.30;59.39;99101.72;4897054;29;20044;-57
2021/10/27 09:36:26;;;;;;;9.32;4.80;;;;;;;7.22;60.78;99105.38;4913152;29;20035;-54
2021/10/27 09:42:09;;;;;;;8.95;4.30;;;;;;;7.28;60.69;99098.31;4913307;29;20079;-57
2021/10/27 09:44:53;;;;;;;13.07;4.88;;;;;;;7.35;60.41;99092.94;4898452;29;20051;-55
2021/10/27 10:06:22;;;;;;;16.05;6.82;;;;;;;7.60;59.25;99070.56;4916389;29;20130;-55
2021/10/27 10:08:49;;;;;;;14.82;7.00;;;;;;;7.60;59.44;99075.75;4899050;29;20452;-54
2021/10/27 10:11:17;;;;;;;11.38;5.90;;;;;;;7.59;59.17;99074.06;4916489;29;20048;-52
2021/10/27 10:13:44;;;;;;;15.07;6.43;;;;;;;7.61;59.40;99076.59;4898966;29;20183;-55
2021/10/27 10:16:10;;;;;;;14.95;6.57;;;;;;;7.60;59.22;99086.09;4898883;29;20632;-56
2021/10/27 10:18:37;;;;;;;8.05;4.70;;;;;;;7.55;59.43;99074.19;4916240;29;20130;-58
2021/10/27 10:21:03;;;;;;;11.80;5.90;;;;;;;7.48;58.92;99055.47;4898755;29;20398;-55
2021/10/27 10:23:30;;;;;;;14.85;6.70;;;;;;;7.68;58.89;99078.09;4915937;29;20039;-53
2021/10/27 10:26:00;;;;;;;12.63;5.97;;;;;;;7.64;59.15;99072.16;4915991;29;20102;-54
2021/10/27 10:28:26;;;;;;;;;;;;;;;7.73;58.77;99073.63;4914724;29;20043;-56
2021/10/27 10:31:03;;;;;;;12.38;6.43;;;;;;;7.72;58.63;99061.59;4915555;29;19922;-57
2021/10/27 10:33:42;;;;;;;17.60;6.65;;;;;;;7.77;58.77;99062.28;4915724;29;20063;-54
2021/10/27 10:36:30;;;;;;;11.70;5.60;;;;;;;7.79;58.54;99077.75;4929923;29;20044;-56
2021/10/27 10:41:50;;;;;;;11.23;6.47;;;;;;;7.89;58.24;99069.63;4899465;29;20043;-53
2021/10/27 10:45:30;;;;;;;14.02;7.07;;;;;;;7.85;58.39;99074.97;4917089;29;20126;-55
2021/10/27 11:01:58;;;;;;;12.35;5.90;;;;;;;7.65;58.41;99037.63;4916267;29;20040;-56
2021/10/27 11:38:57;;;;;;;23.65;8.15;;;;;;;7.44;60.55;99091.78;4895896;29;20460;-57
2021/10/27 11:41:35;;;;;;;16.23;7.78;;;;;;;7.63;60.52;99095.50;4913232;29;20040;-57
2021/10/27 11:44:14;;;;;;;19.27;5.57;;;;;;;7.58;60.77;99094.81;4898154;29;20159;-54
2021/10/27 11:46:56;;;;;;;15.40;8.20;;;;;;;7.49;61.18;99100.25;4914541;29;20288;-56
2021/10/27 11:49:32;;;;;;;20.63;8.65;;;;;;;7.48;61.23;99099.44;4912843;29;20417;-57
2021/10/27 11:51:58;;;;;;;16.50;7.75;;;;;;;7.54;61.33;99112.16;4912982;29;20531;-57
2021/10/27 11:54:27;;;;;;;16.95;8.55;;;;;;;7.55;61.24;99098.34;4914188;29;20048;-57
2021/10/27 11:56:54;;;;;;;9.27;5.95;;;;;;;7.52;61.65;99111.38;4913216;29;20177;-55
2021/10/27 11:59:20;;;;;;;16.70;8.38;;;;;;;7.58;61.51;99112.94;4914548;29;20067;-55
2021/10/27 12:01:54;;;;;;;16.95;7.68;;;;;;;7.50;61.51;99094.19;4914386;29;20056;-55
2021/10/27 12:04:20;;;;;;;14.50;8.10;;;;;;;7.57;61.47;99108.63;4913007;29;20429;-53
2021/10/27 12:07:01;;;;;;;15.93;8.30;;;;;;;7.67;61.13;99110.03;4913225;29;20067;-56
2021/10/27 12:17:59;;;;;;;16.05;6.38;;;;;;;7.74;60.89;99108.13;4913852;29;20059;-56
2021/10/27 12:20:56;;;;;;;11.10;6.15;;;;;;;7.79;60.95;99111.41;4913744;29;20043;-57
2021/10/27 12:23:25;;;;;;;16.70;7.97;;;;;;;7.84;60.87;99114.69;4905912;29;20135;-58
2021/10/27 12:25:53;;;;;;;18.98;8.55;;;;;;;7.92;60.77;99112.66;4913782;29;20123;-54
2021/10/27 12:28:35;;;;;;;15.25;8.07;;;;;;;8.03;60.38;99114.03;4912271;29;20067;-56
2021/10/27 12:31:20;;;;;;;12.68;7.25;;;;;;;7.84;61.10;99125.88;4891920;29;20036;-56
2021/10/27 12:33:48;;;;;;;13.07;6.95;;;;;;;7.80;61.22;99123.44;4913330;29;20056;-56
2021/10/27 12:36:33;;;;;;;9.27;5.50;;;;;;;7.78;61.52;99127.81;4913516;29;20816;-54
2021/10/27 12:39:20;;;;;;;18.73;7.97;;;;;;;7.74;61.69;99128.81;4913470;29;20847;-58
2021/10/27 12:42:08;;;;;;;19.67;8.52;;;;;;;7.69;61.66;99107.41;4913652;29;20035;-55
2021/10/27 12:44:52;;;;;;;12.95;6.60;;;;;;;7.70;62.11;99140.13;4896602;29;20044;-55
2021/10/27 12:47:23;;;;;;;13.55;7.68;;;;;;;7.65;62.41;99145.44;4894577;29;20039;-55
2021/10/27 12:50:06;;;;;;;17.33;8.77;;;;;;;7.75;62.54;99144.25;4911931;29;20139;-52
2021/10/27 12:52:35;;;;;;;14.82;7.68;;;;;;;7.78;62.44;99141.59;4910993;29;20118;-54
2021/10/27 12:55:24;;;;;;;17.60;7.63;;;;;;;7.74;62.65;99157.28;4893109;29;20076;-57
2021/10/27 12:58:17;;;;;;;18.77;7.97;;;;;;;7.71;63.28;99160.78;4904999;29;20062;-57
2021/10/27 13:06:17;;;;;;;24.13;7.82;;;;;;;7.63;64.02;99171.38;4893750;29;20553;-54
2021/10/27 13:19:28;;;;;;;16.38;8.23;;;;;;;7.64;65.19;99188.56;4904842;29;20504;-56
2021/10/27 13:22:07;;;;;;;11.23;6.23;;;;;;;7.49;66.11;99175.25;4915430;29;20159;-55
2021/10/27 13:30:08;;;;;;;11.63;6.75;;;;;;;7.45;67.23;99174.50;4915749;29;20516;-54
2021/10/27 13:32:44;;;;;;;13.93;7.32;;;;;;;7.49;67.34;99185.59;4915917;29;20051;-57
2021/10/27 13:35:10;;;;;;;13.68;6.85;;;;;;;7.47;67.55;99184.81;4916733;29;20048;-56
2021/10/27 13:37:36;;;;;;;17.58;7.85;;;;;;;7.45;67.59;99187.44;4914753;29;20531;-56
2021/10/27 13:40:04;;;;;;;15.65;7.78;;;;;;;7.48;67.90;99189.09;4916337;29;20110;-52
2021/10/27 13:42:41;;;;;;;13.45;6.63;;;;;;;7.46;67.81;99190.88;4915530;29;20044;-56
2021/10/27 13:47:56;;;;;;;17.00;7.43;;;;;;;7.38;68.71;99180.75;4916462;29;20127;-55
2021/10/27 14:06:56;;;;;;;14.60;7.45;;;;;;;7.22;70.31;99213.97;4916581;29;20048;-56
2021/10/27 14:09:30;;;;;;;13.93;7.35;;;;;;;7.24;70.23;99222.53;4916716;29;20040;-56
2021/10/27 14:12:07;;;;;;;13.38;6.90;;;;;;;7.19;70.76;99226.97;4916475;29;20094;-53
2021/10/27 14:14:59;;;;;;;17.23;8.60;;;;;;;7.15;71.11;99217.63;4899025;29;20538;-54
2021/10/27 15:22:18;;;;;;;14.10;7.57;;;;;;;7.07;74.27;99260.06;4912406;29;20181;-57
2021/10/27 15:25:44;;;;;;;16.40;8.43;;;;;;;7.07;74.42;99247.13;4894891;29;20488;-57
2021/10/27 15:35:32;;;;;;;14.93;7.60;;;;;;;7.02;74.61;99251.59;4915019;29;20126;-56
2021/10/27 15:51:19;;;;;;;15.43;7.45;;;;;;;7.15;74.08;99252.97;4914310;29;20040;-59
2021/10/27 15:53:45;;;;;;;15.93;5.75;;;;;;;7.10;74.60;99270.34;4915111;29;20044;-54
2021/10/27 15:56:11;;;;;;;10.38;6.00;;;;;;;7.03;74.74;99261.91;4894725;29;20063;-52
2021/10/27 15:58:36;;;;;;;11.75;6.53;;;;;;;6.94;74.88;99241.47;4903974;29;20066;-55
2021/10/27 16:01:02;;;;;;;11.65;5.65;;;;;;;7.02;74.87;99257.59;4909208;29;20036;-55
2021/10/27 16:03:28;;;;;;;14.85;6.95;;;;;;;6.99;75.48;99260.28;4886173;29;20036;-54
2021/10/27 16:05:56;;;;;;;12.75;6.30;;;;;;;7.00;75.94;99261.13;4918048;29;20110;-53
2021/10/27 16:08:26;;;;;;;13.02;7.35;;;;;;;6.96;75.62;99244.84;4910792;29;20053;-53
2021/10/27 16:10:52;;;;;;;12.55;5.65;;;;;;;7.08;75.76;99259.19;4910937;29;20039;-55
2021/10/27 16:13:18;;;;;;;16.52;6.95;;;;;;;6.99;76.01;99246.50;4908827;29;20048;-52
2021/10/27 16:16:00;;;;;;;10.13;5.32;;;;;;;6.97;75.95;99246.53;4908039;29;20043;-50